createdAt,value
2022-10-16T00:00:37.650Z,100.00
2022-10-16T00:03:04.766Z,100.00
2022-10-16T00:05:31.664Z,100.00
2022-10-16T00:07:58.207Z,100.00
2022-10-16T00:10:25.596Z,100.00
2022-10-16T00:12:52.211Z,100.00
2022-10-16T00:15:18.942Z,100.00
2022-10-16T00:17:45.561Z,100.00
2022-10-16T00:20:12.516Z,100.00
2022-10-16T00:22:39.159Z,100.00
2022-10-16T00:25:05.844Z,100.00
2022-10-16T00:27:32.441Z,100.00
2022-10-16T00:32:30.811Z,100.00
2022-10-16T00:34:57.417Z,100.00
2022-10-16T00:37:24.036Z,100.00
2022-10-16T00:39:50.622Z,100.00
2022-10-16T00:42:18.769Z,100.00
2022-10-16T00:44:48.483Z,100.00
2022-10-16T00:47:23.585Z,100.00
2022-10-16T00:49:51.797Z,100.00
2022-10-16T00:52:18.783Z,100.00
2022-10-16T00:54:47.051Z,100.00
2022-10-16T00:59:42.255Z,100.00
2022-10-16T01:02:10.664Z,100.00
2022-10-16T01:04:46.141Z,100.00
2022-10-16T01:07:15.745Z,100.00
2022-10-16T01:09:50.880Z,100.00
2022-10-16T01:12:24.172Z,100.00
2022-10-16T01:15:02.139Z,100.00
2022-10-16T01:17:35.666Z,100.00
2022-10-16T01:20:12.156Z,100.00
2022-10-16T01:22:44.206Z,100.00
2022-10-16T01:25:13.840Z,100.00
2022-10-16T01:27:41.896Z,100.00
2022-10-16T01:30:10.800Z,100.00
2022-10-16T01:32:43.425Z,100.00
2022-10-16T01:35:25.185Z,100.00
2022-10-16T01:38:03.042Z,100.00
2022-10-16T01:40:30.910Z,100.00
2022-10-16T01:43:00.804Z,100.00
2022-10-16T01:45:29.527Z,100.00
2022-10-16T01:47:56.734Z,100.00
2022-10-16T01:50:25.424Z,100.00
2022-10-16T01:52:53.607Z,100.00
2022-10-16T01:55:24.941Z,100.00
2022-10-16T01:57:52.795Z,100.00
2022-10-16T02:00:21.396Z,100.00
2022-10-16T02:02:50.705Z,100.00
2022-10-16T02:05:21.236Z,100.00
2022-10-16T02:07:48.456Z,100.00
2022-10-16T02:10:15.061Z,100.00
2022-10-16T02:12:43.901Z,100.00
2022-10-16T02:15:10.547Z,100.00
2022-10-16T02:17:37.088Z,100.00
2022-10-16T02:20:05.423Z,100.00
2022-10-16T02:22:44.000Z,100.00
2022-10-16T02:25:16.867Z,100.00
2022-10-16T02:27:50.591Z,100.00
2022-10-16T02:30:34.080Z,100.00
2022-10-16T02:33:03.255Z,100.00
2022-10-16T02:35:31.290Z,100.00
2022-10-16T02:37:59.359Z,100.00
2022-10-16T02:40:26.904Z,100.00
2022-10-16T02:42:54.061Z,100.00
2022-10-16T02:45:22.189Z,100.00
2022-10-16T02:47:48.841Z,100.00
2022-10-16T02:50:15.596Z,100.00
2022-10-16T02:52:42.224Z,100.00
2022-10-16T02:55:09.035Z,100.00
2022-10-16T02:57:37.794Z,100.00
2022-10-16T03:00:08.282Z,100.00
2022-10-16T03:02:34.854Z,100.00
2022-10-16T03:05:01.816Z,100.00
2022-10-16T03:07:28.551Z,100.00
2022-10-16T03:09:56.445Z,100.00
2022-10-16T03:12:23.258Z,100.00
2022-10-16T03:14:49.905Z,100.00
2022-10-16T03:17:17.842Z,100.00
2022-10-16T03:19:44.607Z,100.00
2022-10-16T03:22:11.211Z,100.00
2022-10-16T03:24:37.774Z,100.00
2022-10-16T03:27:04.460Z,100.00
2022-10-16T03:29:31.096Z,100.00
2022-10-16T03:31:57.664Z,100.00
2022-10-16T03:34:24.439Z,100.00
2022-10-16T03:36:51.468Z,100.00
2022-10-16T03:39:18.332Z,100.00
2022-10-16T03:41:44.980Z,100.00
2022-10-16T03:44:11.586Z,100.00
2022-10-16T03:46:38.319Z,100.00
2022-10-16T03:49:07.516Z,100.00
2022-10-16T03:51:36.308Z,100.00
2022-10-16T03:54:02.916Z,100.00
2022-10-16T03:56:29.478Z,100.00
2022-10-16T03:58:56.091Z,100.00
2022-10-16T04:01:22.744Z,100.00
2022-10-16T04:03:49.365Z,100.00
2022-10-16T04:06:15.970Z,100.00
2022-10-16T04:08:45.724Z,100.00
2022-10-16T04:11:12.319Z,100.00
2022-10-16T04:13:38.910Z,100.00
2022-10-16T04:16:05.891Z,100.00
2022-10-16T04:18:32.483Z,100.00
2022-10-16T04:21:03.290Z,100.00
2022-10-16T04:23:29.832Z,100.00
2022-10-16T04:25:56.465Z,100.00
2022-10-16T04:28:23.199Z,100.00
2022-10-16T04:30:49.952Z,100.00
2022-10-16T04:33:16.511Z,100.00
2022-10-16T04:35:43.152Z,100.00
2022-10-16T04:38:09.902Z,100.00
2022-10-16T04:40:37.699Z,100.00
2022-10-16T04:43:04.909Z,100.00
2022-10-16T04:45:31.479Z,100.00
2022-10-16T04:47:59.077Z,100.00
2022-10-16T04:50:26.388Z,100.00
2022-10-16T04:53:05.656Z,100.00
2022-10-16T04:55:32.198Z,100.00
2022-10-16T04:57:59.330Z,100.00
2022-10-16T05:00:26.028Z,100.00
2022-10-16T05:02:52.838Z,100.00
2022-10-16T05:05:20.496Z,100.00
2022-10-16T05:07:48.234Z,100.00
2022-10-16T05:10:14.830Z,100.00
2022-10-16T05:12:41.466Z,100.00
2022-10-16T05:15:08.380Z,100.00
2022-10-16T05:17:34.956Z,100.00
2022-10-16T05:20:01.528Z,100.00
2022-10-16T05:22:28.131Z,100.00
2022-10-16T05:24:55.440Z,100.00
2022-10-16T05:27:22.922Z,100.00
2022-10-16T05:29:49.837Z,100.00
2022-10-16T05:32:18.328Z,100.00
2022-10-16T05:34:45.383Z,100.00
2022-10-16T05:37:12.558Z,100.00
2022-10-16T05:39:39.430Z,100.00
2022-10-16T05:42:06.427Z,100.00
2022-10-16T05:47:00.588Z,100.00
2022-10-16T05:49:27.484Z,100.00
2022-10-16T05:51:54.082Z,100.00
2022-10-16T05:54:20.691Z,100.00
2022-10-16T05:56:47.453Z,100.00
2022-10-16T05:59:14.134Z,100.00
2022-10-16T06:01:41.890Z,100.00
2022-10-16T06:04:09.245Z,100.00
2022-10-16T06:06:37.378Z,100.00
2022-10-16T06:09:04.541Z,100.00
2022-10-16T06:11:32.134Z,100.00
2022-10-16T06:14:01.171Z,100.00
2022-10-16T06:16:28.500Z,100.00
2022-10-16T06:18:56.928Z,100.00
2022-10-16T06:21:27.602Z,100.00
2022-10-16T06:23:55.368Z,100.00
2022-10-16T06:26:23.191Z,100.00
2022-10-16T06:28:50.507Z,100.00
2022-10-16T06:31:17.611Z,100.00
2022-10-16T06:33:44.664Z,100.00
2022-10-16T06:36:13.104Z,100.00
2022-10-16T06:38:39.675Z,100.00
2022-10-16T06:41:07.130Z,100.00
2022-10-16T06:43:36.154Z,100.00
2022-10-16T06:46:03.762Z,100.00
2022-10-16T06:48:31.729Z,100.00
2022-10-16T06:50:59.423Z,100.00
2022-10-16T06:53:26.235Z,100.00
2022-10-16T06:55:52.890Z,100.00
2022-10-16T06:58:19.835Z,100.00
2022-10-16T07:00:46.463Z,100.00
2022-10-16T07:03:13.058Z,100.00
2022-10-16T07:05:40.540Z,100.00
2022-10-16T07:08:07.659Z,100.00
2022-10-16T07:10:34.409Z,100.00
2022-10-16T07:13:01.144Z,100.00
2022-10-16T07:15:28.253Z,100.00
2022-10-16T07:17:55.120Z,100.00
2022-10-16T07:20:21.764Z,100.00
2022-10-16T07:22:48.355Z,100.00
2022-10-16T07:25:15.924Z,100.00
2022-10-16T07:27:42.672Z,100.00
2022-10-16T07:30:09.506Z,100.00
2022-10-16T07:32:36.164Z,100.00
2022-10-16T07:35:02.980Z,100.00
2022-10-16T07:37:30.862Z,100.00
2022-10-16T07:39:59.020Z,100.00
2022-10-16T07:42:25.692Z,100.00
2022-10-16T07:44:52.249Z,100.00
2022-10-16T07:47:18.977Z,100.00
2022-10-16T07:49:45.571Z,100.00
2022-10-16T07:52:12.190Z,100.00
2022-10-16T07:54:38.824Z,100.00
2022-10-16T07:57:05.399Z,100.00
2022-10-16T07:59:32.882Z,100.00
2022-10-16T08:01:59.688Z,100.00
2022-10-16T08:04:26.308Z,100.00
2022-10-16T08:06:52.993Z,100.00
2022-10-16T08:09:20.644Z,100.00
2022-10-16T08:11:47.272Z,100.00
2022-10-16T08:14:13.880Z,100.00
2022-10-16T08:16:40.432Z,100.00
2022-10-16T08:19:07.066Z,100.00
2022-10-16T08:21:33.736Z,100.00
2022-10-16T08:24:01.294Z,100.00
2022-10-16T08:26:28.419Z,100.00
2022-10-16T08:28:55.931Z,100.00
2022-10-16T08:31:22.731Z,100.00
2022-10-16T08:33:49.834Z,100.00
2022-10-16T08:36:17.062Z,100.00
2022-10-16T08:38:44.088Z,100.00
2022-10-16T08:41:22.781Z,88.01
2022-10-16T08:43:52.333Z,87.29
2022-10-16T08:46:30.739Z,89.33
2022-10-16T08:49:00.212Z,89.37
2022-10-16T08:51:29.250Z,87.32
2022-10-16T08:53:57.560Z,84.05
2022-10-16T08:56:24.776Z,83.38
2022-10-16T08:58:55.264Z,84.71
2022-10-16T09:01:30.700Z,81.88
2022-10-16T09:04:16.355Z,84.43
2022-10-16T09:06:43.589Z,84.01
2022-10-16T09:09:21.328Z,82.10
2022-10-16T09:11:50.838Z,79.52
2022-10-16T09:14:38.237Z,78.84
2022-10-16T09:17:22.313Z,77.13
2022-10-16T09:20:04.001Z,79.61
2022-10-16T09:22:32.549Z,76.53
2022-10-16T09:25:11.862Z,73.72
2022-10-16T09:27:39.004Z,64.70
2022-10-16T09:30:14.509Z,63.59
2022-10-16T09:32:44.868Z,65.90
2022-10-16T09:35:16.217Z,62.78
2022-10-16T09:37:43.878Z,59.68
2022-10-16T09:40:15.653Z,60.71
2022-10-16T09:42:42.379Z,61.47
2022-10-16T09:45:20.992Z,57.39
2022-10-16T09:47:47.611Z,59.03
2022-10-16T09:50:27.394Z,55.44
2022-10-16T09:53:06.341Z,55.23
2022-10-16T09:55:33.145Z,56.42
2022-10-16T09:58:01.002Z,55.95
2022-10-16T10:00:29.189Z,53.12
2022-10-16T10:05:29.348Z,51.36
2022-10-16T10:08:00.183Z,48.76
2022-10-16T10:10:28.666Z,48.51
2022-10-16T10:12:56.265Z,46.39
2022-10-16T10:15:25.148Z,48.85
2022-10-16T10:17:53.189Z,49.55
2022-10-16T10:20:28.773Z,46.59
2022-10-16T10:22:57.005Z,47.65
2022-10-16T10:25:30.644Z,46.64
2022-10-16T10:28:04.755Z,47.52
2022-10-16T10:30:31.407Z,47.04
2022-10-16T10:33:21.746Z,46.84
2022-10-16T10:35:55.591Z,48.85
2022-10-16T10:38:22.328Z,49.95
2022-10-16T10:40:54.869Z,50.27
2022-10-16T10:43:24.305Z,48.92
2022-10-16T10:45:55.278Z,47.10
2022-10-16T10:48:37.341Z,47.25
2022-10-16T10:51:25.182Z,49.02
2022-10-16T10:54:23.874Z,46.21
2022-10-16T10:57:05.708Z,47.39
2022-10-16T10:59:47.411Z,48.32
2022-10-16T11:02:23.040Z,46.38
2022-10-16T11:05:05.082Z,45.61
2022-10-16T11:07:40.830Z,45.20
2022-10-16T11:10:15.638Z,43.36
2022-10-16T11:12:54.004Z,41.82
2022-10-16T11:15:26.892Z,42.12
2022-10-16T11:18:08.922Z,43.77
2022-10-16T11:20:41.384Z,39.96
2022-10-16T11:23:29.923Z,39.20
2022-10-16T11:25:58.847Z,37.17
2022-10-16T11:28:31.037Z,36.97
2022-10-16T11:31:01.477Z,36.27
2022-10-16T11:33:32.602Z,35.34
2022-10-16T11:35:59.285Z,35.61
2022-10-16T11:38:40.100Z,33.69
2022-10-16T11:41:12.716Z,34.56
2022-10-16T11:43:42.362Z,34.58
2022-10-16T11:46:29.213Z,33.94
2022-10-16T11:49:04.515Z,31.91
2022-10-16T11:51:54.301Z,33.01
2022-10-16T11:54:39.629Z,33.01
2022-10-16T11:57:18.806Z,32.90
2022-10-16T11:59:51.398Z,33.05
2022-10-16T12:02:32.523Z,37.18
2022-10-16T12:05:07.251Z,32.82
2022-10-16T12:07:37.817Z,32.58
2022-10-16T12:10:11.721Z,31.59
2022-10-16T12:12:40.220Z,31.65
2022-10-16T12:15:17.777Z,30.69
2022-10-16T12:17:46.371Z,29.65
2022-10-16T12:20:12.926Z,29.05
2022-10-16T12:22:48.660Z,28.38
2022-10-16T12:25:47.673Z,28.44
2022-10-16T12:28:17.410Z,30.11
2022-10-16T12:30:52.894Z,28.83
2022-10-16T12:33:27.213Z,30.13
2022-10-16T12:35:54.972Z,30.08
2022-10-16T12:38:25.635Z,29.06
2022-10-16T12:41:04.866Z,29.58
2022-10-16T12:43:38.078Z,28.44
2022-10-16T12:46:24.886Z,27.89
2022-10-16T12:49:08.295Z,27.13
2022-10-16T12:51:36.938Z,26.34
2022-10-16T12:54:21.377Z,25.69
2022-10-16T12:56:59.639Z,25.02
2022-10-16T12:59:46.965Z,24.40
2022-10-16T13:02:29.016Z,26.04
2022-10-16T13:04:55.597Z,26.52
2022-10-16T13:07:31.079Z,25.68
2022-10-16T13:10:00.827Z,23.68
2022-10-16T13:12:30.449Z,23.76
2022-10-16T13:15:13.390Z,25.39
2022-10-16T13:17:49.798Z,24.34
2022-10-16T13:20:20.082Z,23.66
2022-10-16T13:22:55.308Z,23.11
2022-10-16T13:25:42.530Z,22.68
2022-10-16T13:28:10.989Z,23.28
2022-10-16T13:30:37.503Z,23.66
2022-10-16T13:33:07.625Z,23.78
2022-10-16T13:35:35.554Z,23.74
2022-10-16T13:38:05.125Z,23.76
2022-10-16T13:40:31.846Z,23.41
2022-10-16T13:43:00.783Z,23.80
2022-10-16T13:45:27.434Z,24.53
2022-10-16T13:48:04.342Z,24.29
2022-10-16T13:50:31.068Z,24.66
2022-10-16T13:53:16.511Z,24.77
2022-10-16T13:55:43.424Z,25.95
2022-10-16T13:58:13.956Z,25.32
2022-10-16T14:00:41.136Z,24.67
2022-10-16T14:03:17.464Z,25.95
2022-10-16T14:05:49.259Z,26.63
2022-10-16T14:08:15.928Z,26.58
2022-10-16T14:10:43.560Z,25.97
2022-10-16T14:13:17.571Z,27.21
2022-10-16T14:15:47.755Z,27.31
2022-10-16T14:18:19.601Z,27.01
2022-10-16T14:20:46.394Z,27.24
2022-10-16T14:23:22.046Z,26.37
2022-10-16T14:25:49.128Z,25.94
2022-10-16T14:28:17.886Z,26.58
2022-10-16T14:30:52.322Z,26.25
2022-10-16T14:33:31.196Z,26.20
2022-10-16T14:36:03.516Z,27.03
2022-10-16T14:38:30.602Z,25.88
2022-10-16T14:40:58.537Z,26.23
2022-10-16T14:43:48.669Z,26.61
2022-10-16T14:48:49.878Z,26.90
2022-10-16T14:51:20.069Z,25.97
2022-10-16T14:53:47.315Z,26.53
2022-10-16T14:56:24.684Z,26.47
2022-10-16T14:58:51.949Z,25.83
2022-10-16T15:01:19.104Z,25.50
2022-10-16T15:03:46.280Z,25.55
2022-10-16T15:06:13.664Z,25.14
2022-10-16T15:08:40.791Z,26.79
2022-10-16T15:11:13.608Z,28.52
2022-10-16T15:13:40.305Z,28.43
2022-10-16T15:16:09.646Z,30.14
2022-10-16T15:18:36.243Z,29.54
2022-10-16T15:21:02.853Z,31.05
2022-10-16T15:23:29.888Z,32.38
2022-10-16T15:25:56.897Z,34.00
2022-10-16T15:28:24.272Z,35.96
2022-10-16T15:30:52.533Z,37.98
2022-10-16T15:33:20.440Z,39.00
2022-10-16T15:35:48.376Z,39.74
2022-10-16T15:38:15.295Z,41.01
2022-10-16T15:40:42.333Z,42.00
2022-10-16T15:43:09.726Z,42.49
2022-10-16T15:45:36.394Z,42.95
2022-10-16T15:48:03.180Z,44.23
2022-10-16T15:50:31.915Z,44.94
2022-10-16T15:52:58.913Z,45.86
2022-10-16T15:55:25.620Z,46.28
2022-10-16T15:57:52.160Z,47.50
2022-10-16T16:00:24.088Z,49.15
2022-10-16T16:02:52.543Z,48.14
2022-10-16T16:05:19.665Z,49.74
2022-10-16T16:07:46.341Z,49.24
2022-10-16T16:10:13.249Z,51.24
2022-10-16T16:12:40.026Z,51.01
2022-10-16T16:15:08.106Z,50.48
2022-10-16T16:17:35.478Z,52.81
2022-10-16T16:20:02.155Z,54.25
2022-10-16T16:22:29.401Z,54.91
2022-10-16T16:24:56.311Z,55.46
2022-10-16T16:27:26.000Z,55.70
2022-10-16T16:29:53.166Z,58.23
2022-10-16T16:32:19.734Z,55.46
2022-10-16T16:34:47.743Z,55.17
2022-10-16T16:37:14.547Z,58.46
2022-10-16T16:39:41.251Z,57.41
2022-10-16T16:42:11.062Z,57.63
2022-10-16T16:44:37.783Z,58.39
2022-10-16T16:47:05.214Z,58.82
2022-10-16T16:49:31.845Z,59.47
2022-10-16T16:51:58.509Z,58.95
2022-10-16T16:54:25.395Z,59.62
2022-10-16T16:56:52.187Z,59.37
2022-10-16T16:59:20.856Z,60.06
2022-10-16T17:01:48.470Z,60.24
2022-10-16T17:04:20.021Z,59.87
2022-10-16T17:06:46.705Z,60.49
2022-10-16T17:09:16.241Z,61.65
2022-10-16T17:11:45.421Z,62.06
2022-10-16T17:14:12.537Z,62.52
2022-10-16T17:16:39.870Z,65.31
2022-10-16T17:19:08.299Z,65.96
2022-10-16T17:21:35.175Z,66.62
2022-10-16T17:24:02.199Z,67.60
2022-10-16T17:26:28.898Z,68.91
2022-10-16T17:28:57.695Z,69.45
2022-10-16T17:31:30.917Z,74.11
2022-10-16T17:34:01.241Z,74.29
2022-10-16T17:36:31.010Z,72.21
2022-10-16T17:39:04.727Z,73.56
2022-10-16T17:41:31.904Z,75.00
2022-10-16T17:43:58.581Z,76.43
2022-10-16T17:46:25.270Z,74.93
2022-10-16T17:48:54.503Z,74.57
2022-10-16T17:51:27.252Z,79.61
2022-10-16T17:53:56.481Z,73.84
2022-10-16T17:56:23.687Z,77.57
2022-10-16T17:58:51.893Z,78.70
2022-10-16T18:01:20.399Z,78.60
2022-10-16T18:03:54.928Z,78.17
2022-10-16T18:06:22.736Z,78.66
2022-10-16T18:08:50.518Z,82.78
2022-10-16T18:11:17.174Z,79.71
2022-10-16T18:13:43.801Z,78.22
2022-10-16T18:16:11.794Z,81.73
2022-10-16T18:18:39.074Z,81.38
2022-10-16T18:21:09.174Z,81.79
2022-10-16T18:23:36.328Z,82.99
2022-10-16T18:26:03.787Z,82.15
2022-10-16T18:28:30.627Z,81.42
2022-10-16T18:30:58.292Z,82.72
2022-10-16T18:33:25.339Z,83.17
2022-10-16T18:35:52.565Z,84.24
2022-10-16T18:38:19.457Z,86.86
2022-10-16T18:40:46.422Z,88.63
2022-10-16T18:43:12.969Z,92.45
2022-10-16T18:45:39.519Z,91.10
2022-10-16T18:48:06.751Z,90.54
2022-10-16T18:50:33.334Z,91.32
2022-10-16T18:53:00.040Z,90.51
2022-10-16T18:55:30.911Z,93.22
2022-10-16T18:57:57.706Z,94.07
2022-10-16T19:00:24.270Z,93.67
2022-10-16T19:02:50.903Z,97.92
2022-10-16T19:05:17.611Z,97.30
2022-10-16T19:07:45.666Z,100.00
2022-10-16T19:10:12.273Z,97.53
2022-10-16T19:12:38.858Z,100.00
2022-10-16T19:15:05.759Z,100.00
2022-10-16T19:17:32.409Z,100.00
2022-10-16T19:19:59.088Z,100.00
2022-10-16T19:22:40.884Z,100.00
2022-10-16T19:25:08.952Z,100.00
2022-10-16T19:27:35.832Z,100.00
2022-10-16T19:30:02.512Z,100.00
2022-10-16T19:32:29.783Z,100.00
2022-10-16T19:34:57.095Z,100.00
2022-10-16T19:37:25.914Z,100.00
2022-10-16T19:39:52.534Z,100.00
2022-10-16T19:42:19.455Z,100.00
2022-10-16T19:44:46.723Z,100.00
2022-10-16T19:47:13.364Z,100.00
2022-10-16T19:49:39.982Z,100.00
2022-10-16T19:52:06.602Z,100.00
2022-10-16T19:54:35.820Z,100.00
2022-10-16T19:57:02.543Z,100.00
2022-10-16T19:59:29.169Z,100.00
2022-10-16T20:01:55.957Z,100.00
2022-10-16T20:04:22.651Z,100.00
2022-10-16T20:06:49.360Z,100.00
2022-10-16T20:09:16.016Z,100.00
2022-10-16T20:11:42.672Z,100.00
2022-10-16T20:14:10.043Z,100.00
2022-10-16T20:16:38.031Z,100.00
2022-10-16T20:19:04.740Z,100.00
2022-10-16T20:21:33.323Z,100.00
2022-10-16T20:24:00.831Z,100.00
2022-10-16T20:26:27.624Z,100.00
2022-10-16T20:28:54.658Z,100.00
2022-10-16T20:31:22.875Z,100.00
2022-10-16T20:33:49.971Z,100.00
2022-10-16T20:36:16.928Z,100.00
2022-10-16T20:38:43.586Z,100.00
2022-10-16T20:41:10.571Z,100.00
2022-10-16T20:43:39.620Z,100.00
2022-10-16T20:46:08.975Z,100.00
2022-10-16T20:48:35.810Z,100.00
2022-10-16T20:51:38.040Z,100.00
2022-10-16T20:54:05.581Z,100.00
2022-10-16T20:56:33.208Z,100.00
2022-10-16T20:59:01.899Z,100.00
2022-10-16T21:01:29.218Z,100.00
2022-10-16T21:03:58.056Z,100.00
2022-10-16T21:06:25.077Z,100.00
2022-10-16T21:08:51.730Z,100.00
2022-10-16T21:11:19.711Z,100.00
2022-10-16T21:13:46.734Z,100.00
2022-10-16T21:16:15.471Z,100.00
2022-10-16T21:18:44.666Z,100.00
2022-10-16T21:21:19.657Z,100.00
2022-10-16T21:23:46.507Z,100.00
2022-10-16T21:26:13.213Z,100.00
2022-10-16T21:28:39.893Z,100.00
2022-10-16T21:31:14.185Z,100.00
2022-10-16T21:33:42.363Z,100.00
2022-10-16T21:36:12.682Z,100.00
2022-10-16T21:38:40.566Z,100.00
2022-10-16T21:41:19.761Z,100.00
2022-10-16T21:43:46.579Z,100.00
2022-10-16T21:46:13.839Z,100.00
2022-10-16T21:48:42.574Z,100.00
2022-10-16T21:51:09.869Z,100.00
2022-10-16T21:53:36.645Z,100.00
2022-10-16T21:56:03.559Z,100.00
2022-10-16T21:58:34.365Z,100.00
2022-10-16T22:01:09.735Z,100.00
2022-10-16T22:03:36.398Z,100.00
2022-10-16T22:06:06.614Z,100.00
2022-10-16T22:08:34.210Z,100.00
2022-10-16T22:11:22.353Z,100.00
2022-10-16T22:13:54.352Z,100.00
2022-10-16T22:16:24.757Z,100.00
2022-10-16T22:18:52.785Z,100.00
2022-10-16T22:21:19.376Z,100.00
2022-10-16T22:23:45.999Z,100.00
2022-10-16T22:26:12.767Z,100.00
2022-10-16T22:28:40.133Z,100.00
2022-10-16T22:31:09.159Z,100.00
2022-10-16T22:33:36.088Z,100.00
2022-10-16T22:36:06.289Z,100.00
2022-10-16T22:38:33.639Z,100.00
2022-10-16T22:41:08.544Z,100.00
2022-10-16T22:43:36.307Z,100.00
2022-10-16T22:46:03.901Z,100.00
2022-10-16T22:48:30.647Z,100.00
2022-10-16T22:50:57.342Z,100.00
2022-10-16T22:53:23.879Z,100.00
2022-10-16T22:55:50.571Z,100.00
2022-10-16T22:58:17.309Z,100.00
2022-10-16T23:00:44.818Z,100.00
2022-10-16T23:03:11.589Z,100.00
2022-10-16T23:05:39.413Z,100.00
2022-10-16T23:08:06.181Z,100.00
2022-10-16T23:10:33.655Z,100.00
2022-10-16T23:13:00.235Z,100.00
2022-10-16T23:15:26.830Z,100.00
2022-10-16T23:17:53.457Z,100.00
2022-10-16T23:20:20.009Z,100.00
2022-10-16T23:22:46.595Z,100.00
2022-10-16T23:25:13.195Z,100.00
2022-10-16T23:27:39.801Z,100.00
2022-10-16T23:30:09.265Z,100.00
2022-10-16T23:32:35.895Z,100.00
2022-10-16T23:35:02.514Z,100.00
2022-10-16T23:37:29.152Z,100.00
2022-10-16T23:39:55.698Z,100.00
2022-10-16T23:42:22.322Z,100.00
2022-10-16T23:44:49.294Z,100.00
2022-10-16T23:47:15.892Z,100.00
2022-10-16T23:49:42.431Z,100.00
2022-10-16T23:52:09.262Z,100.00
2022-10-16T23:54:35.853Z,100.00
2022-10-16T23:57:02.464Z,100.00
2022-10-16T23:59:29.061Z,100.00
